createdAt,value
2019-05-29T00:01:37.581Z,7.70
2019-05-29T00:04:08.149Z,8.07
2019-05-29T00:06:37.841Z,8.57
2019-05-29T00:09:08.170Z,8.27
2019-05-29T00:11:37.641Z,7.43
2019-05-29T00:14:21.702Z,7.67
2019-05-29T00:16:38.679Z,7.97
2019-05-29T00:19:08.795Z,13.10
2019-05-29T00:21:38.452Z,8.60
2019-05-29T00:24:08.334Z,10.50
2019-05-29T00:26:37.901Z,9.73
2019-05-29T00:29:07.566Z,11.20
2019-05-29T00:31:37.247Z,8.33
2019-05-29T00:34:07.006Z,8.90
2019-05-29T00:36:36.591Z,7.73
2019-05-29T00:39:08.679Z,7.73
2019-05-29T00:41:38.389Z,7.20
2019-05-29T00:44:09.075Z,9.60
2019-05-29T00:46:38.798Z,8.03
2019-05-29T00:49:08.335Z,9.20
2019-05-29T00:51:37.894Z,7.20
2019-05-29T00:54:08.231Z,7.20
2019-05-29T00:56:37.907Z,7.30
2019-05-29T00:59:07.497Z,8.93
2019-05-29T01:01:37.110Z,7.87
2019-05-29T01:04:06.631Z,8.47
2019-05-29T01:06:36.115Z,8.10
2019-05-29T01:09:08.288Z,7.40
2019-05-29T01:11:37.765Z,6.80
2019-05-29T01:14:07.481Z,6.53
2019-05-29T01:16:37.103Z,5.97
2019-05-29T01:19:24.928Z,7.23
2019-05-29T01:21:58.141Z,5.50
2019-05-29T01:24:28.176Z,6.87
2019-05-29T01:26:57.790Z,7.87
2019-05-29T01:29:27.380Z,7.10
2019-05-29T01:31:56.948Z,6.73
2019-05-29T01:34:26.460Z,6.33
2019-05-29T01:36:56.111Z,8.60
2019-05-29T01:58:08.152Z,6.67
2019-05-29T02:01:01.494Z,6.90
2019-05-29T02:04:06.570Z,5.80
2019-05-29T02:14:39.563Z,8.93
2019-05-29T02:18:25.114Z,6.20
2019-05-29T02:21:16.001Z,8.00
2019-05-29T02:24:01.055Z,6.80
2019-05-29T02:33:33.718Z,7.13
2019-05-29T02:36:13.893Z,6.60
2019-05-29T02:39:00.030Z,6.87
2019-05-29T02:56:20.389Z,5.43
2019-05-29T02:58:57.683Z,6.30
2019-05-29T03:02:03.297Z,5.90
2019-05-29T03:15:29.707Z,6.87
2019-05-29T03:18:05.688Z,8.77
2019-05-29T03:21:04.672Z,7.73
2019-05-29T03:26:38.380Z,8.93
2019-05-29T03:29:17.837Z,7.90
2019-05-29T03:32:00.140Z,7.00
2019-05-29T03:41:32.743Z,8.83
2019-05-29T03:45:07.233Z,5.93
2019-05-29T03:48:32.436Z,6.93
2019-05-29T04:04:24.920Z,8.23
2019-05-29T04:49:11.873Z,4.00
2019-05-29T04:52:21.726Z,3.80
2019-05-29T04:55:37.087Z,4.20
2019-05-29T04:58:20.182Z,3.10
2019-05-29T05:03:48.730Z,6.30
2019-05-29T05:07:24.283Z,3.80
2019-05-29T05:33:51.547Z,3.83
2019-05-29T07:07:13.467Z,2.10
2019-05-29T07:09:45.041Z,4.60
2019-05-29T07:21:42.808Z,1.77
2019-05-29T07:28:59.773Z,3.13
2019-05-29T08:13:57.439Z,1.73
2019-05-29T09:27:53.328Z,4.80
2019-05-29T10:53:10.133Z,2.70
2019-05-29T12:06:51.215Z,1.57
2019-05-29T12:32:27.975Z,1.47
2019-05-29T12:47:47.227Z,2.80
2019-05-29T13:06:27.965Z,1.90
2019-05-29T13:08:58.680Z,1.50
2019-05-29T13:31:11.525Z,1.83
2019-05-29T13:34:38.547Z,1.30
2019-05-29T14:01:54.079Z,2.23
2019-05-29T14:04:23.642Z,1.20
2019-05-29T14:06:53.428Z,3.63
2019-05-29T14:09:23.111Z,3.93
2019-05-29T14:11:52.704Z,1.47
2019-05-29T14:14:22.394Z,1.70
2019-05-29T14:16:52.081Z,3.43
2019-05-29T14:19:21.566Z,1.67
2019-05-29T14:21:51.455Z,2.47
2019-05-29T14:24:29.333Z,1.80
2019-05-29T14:26:52.447Z,1.20
2019-05-29T14:29:22.196Z,4.53
2019-05-29T14:31:52.188Z,1.13
2019-05-29T14:34:21.769Z,2.15
2019-05-29T14:36:51.395Z,1.00
2019-05-29T14:39:20.982Z,2.43
2019-05-29T14:41:50.727Z,2.97
2019-05-29T14:44:20.302Z,1.73
2019-05-29T14:46:49.968Z,2.73
2019-05-29T14:49:19.532Z,1.63
2019-05-29T14:51:49.236Z,3.70
2019-05-29T14:54:18.835Z,1.87
2019-05-29T14:56:48.398Z,2.20
2019-05-29T14:59:18.615Z,3.20
2019-05-29T15:01:51.389Z,2.53
2019-05-29T15:04:19.865Z,2.17
2019-05-29T15:06:49.549Z,3.70
2019-05-29T15:09:19.291Z,1.40
2019-05-29T15:11:48.806Z,6.00
2019-05-29T15:14:18.356Z,1.57
2019-05-29T15:16:47.853Z,1.50
2019-05-29T15:19:17.420Z,2.87
2019-05-29T15:21:46.886Z,2.13
2019-05-29T15:24:16.490Z,2.40
2019-05-29T15:26:46.088Z,2.33
2019-05-29T15:29:17.928Z,1.60
2019-05-29T15:31:47.263Z,2.73
2019-05-29T15:34:16.813Z,1.60
2019-05-29T15:36:46.439Z,2.10
2019-05-29T15:39:16.871Z,1.97
2019-05-29T15:41:46.590Z,1.63
2019-05-29T15:44:17.268Z,2.30
2019-05-29T15:46:46.962Z,1.40
2019-05-29T15:49:17.269Z,1.93
2019-05-29T15:51:46.941Z,3.50
2019-05-29T15:54:17.537Z,2.40
2019-05-29T15:56:47.388Z,1.50
2019-05-29T15:59:18.905Z,1.93
2019-05-29T16:01:48.381Z,2.47
2019-05-29T16:04:19.136Z,1.60
2019-05-29T16:06:48.861Z,2.27
2019-05-29T16:09:18.816Z,2.83
2019-05-29T16:11:48.550Z,1.20
2019-05-29T16:14:19.216Z,1.63
2019-05-29T16:16:49.307Z,1.40
2019-05-29T16:19:18.901Z,1.37
2019-05-29T16:21:48.600Z,2.03
2019-05-29T16:24:19.033Z,2.20
2019-05-29T16:26:48.737Z,2.20
2019-05-29T16:29:19.762Z,1.20
2019-05-29T16:31:49.430Z,2.20
2019-05-29T16:34:20.324Z,3.90
2019-05-29T16:36:50.570Z,1.10
2019-05-29T16:39:21.452Z,4.00
2019-05-29T16:41:51.987Z,1.10
2019-05-29T16:44:27.348Z,3.33
2019-05-29T16:46:52.879Z,2.40
2019-05-29T16:49:23.124Z,1.70
2019-05-29T16:51:52.799Z,2.63
2019-05-29T16:54:23.179Z,2.43
2019-05-29T16:56:53.065Z,1.57
2019-05-29T16:59:25.327Z,1.80
2019-05-29T17:01:53.953Z,1.97
2019-05-29T17:04:23.866Z,7.87
2019-05-29T17:06:53.909Z,16.03
2019-05-29T17:09:24.599Z,1.70
2019-05-29T17:11:54.356Z,2.70
2019-05-29T17:14:25.033Z,1.90
2019-05-29T17:16:55.077Z,2.80
2019-05-29T17:19:25.241Z,0.90
2019-05-29T17:21:55.291Z,1.60
2019-05-29T17:24:25.183Z,5.83
2019-05-29T17:26:54.950Z,1.37
2019-05-29T17:29:25.094Z,3.77
2019-05-29T17:31:55.025Z,2.00
2019-05-29T17:34:25.235Z,3.50
2019-05-29T17:36:55.274Z,1.13
2019-05-29T17:39:25.199Z,6.57
2019-05-29T17:41:55.206Z,13.53
2019-05-29T17:44:25.681Z,2.70
2019-05-29T17:46:55.912Z,5.07
2019-05-29T17:49:32.958Z,2.23
2019-05-29T17:51:56.680Z,1.50
2019-05-29T17:54:26.375Z,1.47
2019-05-29T17:56:56.122Z,2.40
2019-05-29T17:59:26.291Z,1.67
2019-05-29T18:01:56.116Z,1.77
2019-05-29T18:04:26.818Z,2.00
2019-05-29T18:06:56.995Z,2.43
2019-05-29T18:09:29.493Z,2.17
2019-05-29T18:11:58.349Z,1.87
2019-05-29T18:14:27.978Z,2.03
2019-05-29T18:16:57.483Z,1.87
2019-05-29T18:19:28.211Z,1.70
2019-05-29T18:21:58.402Z,1.33
2019-05-29T18:24:28.248Z,1.67
2019-05-29T18:26:59.174Z,5.03
2019-05-29T18:29:29.775Z,3.57
2019-05-29T18:31:59.433Z,1.53
2019-05-29T18:34:29.655Z,1.70
2019-05-29T18:36:59.509Z,3.00
2019-05-29T18:39:29.077Z,1.10
2019-05-29T18:41:58.663Z,1.50
2019-05-29T18:44:28.948Z,4.43
2019-05-29T18:46:58.828Z,1.20
2019-05-29T18:49:28.686Z,1.37
2019-05-29T18:52:00.554Z,2.33
2019-05-29T18:54:30.011Z,2.90
2019-05-29T18:57:14.514Z,1.87
2019-05-29T18:59:33.407Z,1.57
2019-05-29T19:02:03.079Z,1.30
2019-05-29T19:04:32.821Z,4.50
2019-05-29T19:07:02.371Z,1.57
2019-05-29T19:09:32.150Z,1.17
2019-05-29T19:12:01.771Z,1.00
2019-05-29T19:14:32.511Z,1.10
2019-05-29T19:17:02.587Z,1.37
2019-05-29T19:19:32.528Z,1.80
2019-05-29T19:22:02.603Z,1.10
2019-05-29T19:24:32.822Z,1.40
2019-05-29T19:27:03.324Z,3.57
2019-05-29T19:29:33.483Z,2.70
2019-05-29T19:32:03.209Z,1.10
2019-05-29T19:34:33.658Z,1.90
2019-05-29T19:37:03.893Z,3.67
2019-05-29T19:39:34.183Z,2.10
2019-05-29T19:42:04.009Z,1.70
2019-05-29T19:44:37.157Z,1.90
2019-05-29T19:47:06.896Z,5.23
2019-05-29T19:49:36.760Z,1.13
2019-05-29T19:52:06.423Z,2.43
2019-05-29T19:54:36.040Z,1.57
2019-05-29T19:57:06.128Z,1.30
2019-05-29T19:59:36.281Z,1.40
2019-05-29T20:02:06.226Z,1.30
2019-05-29T20:04:36.927Z,1.27
2019-05-29T20:07:06.709Z,1.43
2019-05-29T20:09:37.584Z,1.30
2019-05-29T20:12:07.483Z,2.33
2019-05-29T20:14:38.078Z,1.90
2019-05-29T20:17:07.917Z,1.70
2019-05-29T20:19:40.491Z,2.87
2019-05-29T20:22:08.817Z,6.53
2019-05-29T20:24:39.079Z,1.73
2019-05-29T20:27:08.832Z,2.50
2019-05-29T20:29:38.574Z,2.23
2019-05-29T20:32:08.455Z,3.60
2019-05-29T20:34:39.020Z,1.40
2019-05-29T20:37:08.803Z,1.40
2019-05-29T20:39:38.565Z,1.73
2019-05-29T20:42:08.212Z,3.33
2019-05-29T20:44:38.712Z,2.40
2019-05-29T20:47:08.781Z,2.37
2019-05-29T20:49:38.578Z,2.03
2019-05-29T20:52:27.497Z,1.37
2019-05-29T20:54:58.708Z,1.30
2019-05-29T20:57:28.553Z,2.13
2019-05-29T20:59:58.073Z,2.87
2019-05-29T21:02:27.609Z,1.93
2019-05-29T21:04:58.326Z,1.80
2019-05-29T21:07:28.346Z,2.20
2019-05-29T21:09:57.984Z,2.63
2019-05-29T21:12:27.572Z,2.53
2019-05-29T21:14:57.240Z,2.07
2019-05-29T21:17:26.909Z,2.07
2019-05-29T21:19:56.410Z,2.73
2019-05-29T21:22:26.332Z,4.10
2019-05-29T21:25:04.637Z,3.33
2019-05-29T21:27:27.449Z,2.10
2019-05-29T21:29:57.254Z,2.17
2019-05-29T21:32:26.979Z,3.37
2019-05-29T21:34:56.561Z,4.70
2019-05-29T21:37:26.175Z,2.60
2019-05-29T21:39:55.899Z,3.83
2019-05-29T21:42:25.539Z,5.20
2019-05-29T21:44:55.370Z,2.23
2019-05-29T21:47:25.130Z,3.23
2019-05-29T21:49:54.626Z,4.90
2019-05-29T21:52:24.354Z,2.43
2019-05-29T21:54:53.922Z,1.73
2019-05-29T21:57:23.479Z,3.97
2019-05-29T21:59:53.007Z,3.27
2019-05-29T22:02:22.728Z,6.00
2019-05-29T22:04:52.522Z,3.13
2019-05-29T22:07:22.287Z,2.27
2019-05-29T22:09:52.318Z,2.20
2019-05-29T22:12:22.018Z,2.87
2019-05-29T22:14:53.193Z,2.03
2019-05-29T22:17:23.051Z,3.27
2019-05-29T22:19:52.873Z,4.70
2019-05-29T22:22:22.494Z,1.87
2019-05-29T22:24:53.090Z,2.67
2019-05-29T22:27:22.711Z,3.20
2019-05-29T22:29:53.461Z,2.50
2019-05-29T22:32:23.290Z,2.03
2019-05-29T22:34:53.656Z,2.67
2019-05-29T22:37:23.385Z,3.17
2019-05-29T22:39:53.613Z,3.20
2019-05-29T22:42:23.332Z,3.10
2019-05-29T22:44:53.583Z,2.63
2019-05-29T22:47:23.483Z,1.70
2019-05-29T22:49:53.920Z,2.17
2019-05-29T22:52:23.644Z,2.83
2019-05-29T22:54:53.805Z,3.97
2019-05-29T22:57:23.531Z,2.37
2019-05-29T22:59:53.918Z,1.97
2019-05-29T23:02:23.597Z,3.93
2019-05-29T23:04:54.122Z,2.30
2019-05-29T23:07:23.805Z,2.30
2019-05-29T23:09:54.252Z,3.20
2019-05-29T23:12:23.913Z,2.37
2019-05-29T23:14:54.409Z,3.20
2019-05-29T23:17:24.186Z,4.20
2019-05-29T23:19:54.546Z,4.40
2019-05-29T23:22:24.748Z,2.80
2019-05-29T23:24:54.919Z,4.70
2019-05-29T23:27:24.571Z,3.67
2019-05-29T23:29:54.739Z,3.17
2019-05-29T23:32:24.453Z,6.90
2019-05-29T23:34:55.032Z,3.67
2019-05-29T23:37:24.627Z,3.20
2019-05-29T23:39:55.028Z,2.17
2019-05-29T23:42:24.817Z,2.40
2019-05-29T23:44:55.807Z,3.13
2019-05-29T23:47:25.431Z,2.13
2019-05-29T23:49:55.497Z,2.10
2019-05-29T23:52:25.100Z,9.60
2019-05-29T23:54:55.728Z,2.50
2019-05-29T23:57:25.399Z,2.10
